Latest Weather Observations for Cape Grim

IDT60801

Issued at 6:32 pm EDT Tuesday 28 February 2017 (issued every 30 minutes, with the page automatically refreshed every 10 minutes)

About weather observations | Map of weather stations | Latest weather observations for TAS | Other Formats
Station Details ID: 091331 Name: CAPE GRIM Lat: -40.68 Lon: 144.69 Height: 86.0 m
Data from the previous 72 hours. | See also: Recent months at Cape Grim
Date/Time
EDT
Temp
°C
App
Temp
°C
Dew
Point
°C
Rel
Hum
%
Delta-T
°C
Wind Press
QNH
hPa
Press
MSL
hPa
Rain since
9am
mm
Dir  Spd
km/h
Gust
km/h
Spd
kts
Gust
kts
28/06:00pm 20.8 15.9 17.2 80 2.2 ENE 39 44 21 24 1021.2 1021.0 0.0
28/05:30pm 21.4 16.6 17.6 79 2.4 ENE 39 48 21 26 1021.3 1021.1 0.0
28/05:00pm 22.3 18.0 17.7 75 2.9 ENE 37 46 20 25 1021.3 1021.1 0.0
28/04:30pm 22.3 17.1 17.4 74 3.0 ENE 41 48 22 26 1021.4 1021.2 0.0
28/04:00pm 22.7 17.1 17.4 72 3.3 ENE 43 50 23 27 1021.5 1021.3 0.0
28/03:30pm 22.8 17.1 17.3 71 3.4 ENE 43 52 23 28 1021.8 1021.6 0.0
28/03:00pm 22.5 16.7 17.0 71 3.4 ENE 43 52 23 28 1022.1 1021.9 0.0
28/02:30pm 23.0 17.0 16.5 67 4.0 E 43 52 23 28 1022.3 1022.2 0.0
28/02:00pm 22.3 15.8 16.6 70 3.5 ENE 46 54 25 29 1022.3 1022.2 0.0
28/01:30pm 22.4 15.8 16.4 69 3.7 ENE 46 56 25 30 1022.3 1022.2 0.0
28/01:00pm 21.9 15.3 16.4 71 3.3 ENE 46 56 25 30 1022.5 1022.4 0.0
28/12:30pm 21.8 15.6 16.3 71 3.3 E 44 56 24 30 1022.6 1022.5 0.0
28/12:00pm 21.7 15.0 16.0 70 3.4 ENE 46 54 25 29 1023.4 1023.3 0.0
28/11:30am 21.3 14.6 16.0 72 3.2 ENE 46 57 25 31 1022.9 1022.8 0.0
28/11:00am 21.4 14.8 16.4 73 3.0 E 46 56 25 30 1022.7 1022.6 0.0
28/10:30am 20.5 13.7 15.9 75 2.8 ENE 46 56 25 30 1022.5 1022.4 0.0
28/10:00am 20.0 13.1 15.6 76 2.6 E 46 56 25 30 1022.4 1022.3 0.0
28/09:30am 19.3 12.8 15.6 79 2.2 E 44 54 24 29 1022.5 1022.4 0.0
28/09:00am 18.5 12.1 15.4 82 1.8 E 43 54 23 29 1022.5 1022.4 0.0
28/08:30am 17.7 11.3 15.5 87 1.3 E 43 50 23 27 1022.5 1022.4 0.0
28/08:00am 17.1 11.2 15.6 91 0.9 ENE 41 50 22 27 1022.4 1022.3 0.0
28/07:30am 17.0 11.4 15.5 91 0.9 ENE 39 46 21 25 1022.3 1022.2 0.0
28/07:00am 17.2 12.1 15.7 91 0.9 ENE 37 44 20 24 1022.3 1022.2 0.0
28/06:31am 17.3 12.1 15.6 90 1.0 ENE 37 46 20 25 1022.4 1022.3 0.0
28/06:30am 17.3 12.1 15.6 90 1.0 ENE 37 46 20 25 1022.3 1022.2 0.0
28/06:00am 17.4 11.9 15.7 90 1.0 ENE 39 48 21 26 1022.2 1022.1 0.0
28/05:30am 17.3 11.7 15.6 90 1.0 ENE 39 48 21 26 1022.0 1021.8 0.0
28/05:00am 17.3 11.0 15.6 90 1.0 ENE 43 54 23 29 1022.0 1021.8 0.0
28/04:30am 17.3 11.4 15.6 90 1.0 ENE 41 50 22 27 1022.1 1021.9 0.0
28/04:00am 17.1 11.5 15.6 91 0.9 ENE 39 48 21 26 1022.3 1022.2 0.0
28/03:30am 16.9 10.9 15.4 91 0.9 E 41 54 22 29 1022.5 1022.4 0.0
28/03:00am 16.8 10.2 15.3 91 0.9 E 44 56 24 30 1022.4 1022.3 0.0
28/02:30am 16.9 10.4 15.2 90 1.0 E 43 52 23 28 1022.6 1022.5 0.0
28/02:00am 17.0 10.0 15.3 90 1.0 E 46 57 25 31 1022.8 1022.7 0.0
28/01:30am 17.0 9.6 15.3 90 1.0 E 48 59 26 32 1022.8 1022.7 0.0
28/01:00am 17.0 10.0 15.3 90 1.0 E 46 56 25 30 1022.9 1022.8 0.0
28/12:30am 17.0 10.0 15.3 90 1.0 ENE 46 57 25 31 1023.0 1022.9 0.0
28/12:00am 17.0 10.0 15.3 90 1.0 ENE 46 57 25 31 1023.1 1023.0 0.0
 
Date/Time
EDT
Temp
°C
App
Temp
°C
Dew
Point
°C
Rel
Hum
%
Delta-T
°C
Wind Press
QNH
hPa
Press
MSL
hPa
Rain since
9am
mm
Dir  Spd
km/h
Gust
km/h
Spd
kts
Gust
kts
27/11:30pm 17.0 10.3 15.2 89 1.0 ENE 44 54 24 29 1023.3 1023.2 0.0
27/11:00pm 17.1 10.0 15.1 88 1.2 ENE 46 59 25 32 1023.4 1023.3 0.0
27/10:30pm 17.2 10.1 15.0 87 1.3 ENE 46 59 25 32 1023.5 1023.4 0.0
27/10:00pm 17.1 10.4 15.1 88 1.2 ENE 44 56 24 30 1023.5 1023.4 0.0
27/09:30pm 17.1 10.5 14.9 87 1.3 ENE 43 56 23 30 1023.4 1023.3 0.0
27/09:00pm 17.3 10.5 14.8 85 1.4 ENE 44 57 24 31 1023.4 1023.3 0.0
27/08:30pm 17.4 10.6 14.7 84 1.6 ENE 44 56 24 30 1023.3 1023.2 0.0
27/08:00pm 17.7 10.4 14.6 82 1.8 ENE 46 57 25 31 1023.1 1023.0 0.0
27/07:47pm 17.8 10.9 14.5 81 1.9 ENE 44 63 24 34 1023.1 1023.0 0.0
27/07:30pm 18.1 10.8 14.4 79 2.1 ENE 46 56 25 30 1023.0 1022.9 0.0
27/07:00pm 18.6 11.8 14.7 78 2.3 ENE 44 56 24 30 1022.9 1022.8 0.0
27/06:30pm 19.1 11.5 14.8 76 2.5 ENE 48 57 26 31 1022.9 1022.8 0.0
27/06:00pm 19.5 12.0 15.0 75 2.6 ENE 48 61 26 33 1022.8 1022.7 0.0
27/05:30pm 20.1 12.3 15.3 74 2.8 ENE 50 61 27 33 1022.8 1022.7 0.0
27/05:00pm 20.4 12.2 15.2 72 3.1 ENE 52 65 28 35 1022.9 1022.8 0.0
27/04:30pm 20.5 12.7 15.1 71 3.2 ENE 50 63 27 34 1022.9 1022.8 0.0
27/04:00pm 20.8 13.3 15.1 70 3.4 ENE 48 63 26 34 1023.3 1023.2 0.0
27/03:30pm 21.2 13.4 15.3 69 3.5 ENE 50 63 27 34 1023.1 1023.0 0.0
27/03:00pm 21.1 13.6 15.0 68 3.6 ENE 48 63 26 34 1023.6 1023.5 0.0
27/02:30pm 20.7 12.8 14.8 69 3.5 ENE 50 57 27 31 1023.9 1023.8 0.0
27/02:00pm 21.0 12.8 15.1 69 3.5 ENE 52 65 28 35 1023.8 1023.7 0.0
27/01:46pm 21.0 13.0 14.6 67 3.8 ENE 50 70 27 38 1023.7 1023.6 0.0
27/01:30pm 20.9 13.0 15.0 69 3.5 ENE 50 65 27 35 1023.9 1023.8 0.0
27/01:25pm 21.1 13.9 14.7 67 3.8 ENE 46 65 25 35 1023.9 1023.8 0.0
27/01:00pm 21.1 13.2 15.0 68 3.6 E 50 63 27 34 1024.1 1024.0 0.0
27/12:30pm 20.7 12.1 14.1 66 3.8 ENE 52 65 28 35 1024.1 1024.0 0.0
27/12:00pm 20.2 11.6 13.9 67 3.6 E 52 65 28 35 1024.2 1024.1 0.0
27/11:30am 19.9 11.5 13.6 67 3.6 ENE 50 63 27 34 1024.2 1024.1 0.0
27/11:00am 19.6 11.7 13.8 69 3.3 E 48 59 26 32 1024.4 1024.3 0.0
27/10:30am 19.0 11.4 13.6 71 3.1 ENE 46 61 25 33 1024.6 1024.5 0.0
27/10:00am 18.6 11.1 13.9 74 2.7 ENE 46 61 25 33 1024.5 1024.4 0.0
27/09:30am 17.6 9.1 13.3 76 2.4 ENE 50 63 27 34 1024.2 1024.1 0.0
27/09:00am 17.1 8.7 13.4 79 2.1 ENE 50 63 27 34 1024.0 1023.9 0.0
27/08:30am 16.3 9.0 13.4 83 1.6 E 44 54 24 29 1024.0 1023.9 0.0
27/08:00am 15.6 8.6 13.8 89 1.0 ENE 43 52 23 28 1023.9 1023.8 0.0
27/07:30am 15.4 8.9 13.9 91 0.8 E 41 52 22 28 1023.8 1023.7 0.0
27/07:00am 15.6 8.2 14.1 91 0.8 ENE 46 57 25 31 1023.5 1023.4 0.0
27/06:30am 15.5 8.3 13.2 86 1.3 ENE 43 52 23 28 1023.6 1023.5 0.0
27/06:00am 15.5 9.1 13.2 86 1.3 ENE 39 48 21 26 1023.6 1023.5 0.0
27/05:30am 15.6 8.8 13.1 85 1.4 ENE 41 50 22 27 1023.3 1023.2 0.0
27/05:00am 15.6 8.8 13.1 85 1.4 ENE 41 50 22 27 1023.1 1023.0 0.0
27/04:30am 15.7 8.5 13.2 85 1.4 ENE 43 52 23 28 1023.0 1022.9 0.0
27/04:00am 15.6 8.7 12.9 84 1.5 ENE 41 50 22 27 1023.2 1023.1 0.0
27/03:30am 15.7 9.2 13.0 84 1.5 ENE 39 46 21 25 1023.5 1023.4 0.0
27/03:00am 15.7 8.8 12.8 83 1.6 ENE 41 52 22 28 1023.6 1023.5 0.0
27/02:30am 15.8 8.8 12.5 81 1.8 ENE 41 50 22 27 1023.4 1023.3 0.0
27/02:00am 15.7 9.1 12.6 82 1.7 ENE 39 48 21 26 1023.9 1023.8 0.0
27/01:30am 15.6 9.4 12.7 83 1.6 ENE 37 52 20 28 1024.1 1024.0 0.0
27/01:07am 15.7 10.1 13.4 86 1.3 ENE 35 54 19 29 1024.2 1024.1 0.0
27/01:00am 15.7 9.7 13.2 85 1.4 ENE 37 46 20 25 1024.2 1024.1 0.0
27/12:30am 15.7 9.4 13.4 86 1.3 ENE 39 50 21 27 1024.1 1024.0 0.0
27/12:00am 15.8 9.9 13.5 86 1.3 ENE 37 46 20 25 1024.2 1024.1 0.0
 
Date/Time
EDT
Temp
°C
App
Temp
°C
Dew
Point
°C
Rel
Hum
%
Delta-T
°C
Wind Press
QNH
hPa
Press
MSL
hPa
Rain since
9am
mm
Dir  Spd
km/h
Gust
km/h
Spd
kts
Gust
kts
26/11:30pm 15.6 9.2 13.1 85 1.4 ENE 39 50 21 27 1024.2 1024.1 0.0
26/11:00pm 15.6 8.8 13.1 85 1.4 ENE 41 50 22 27 1024.2 1024.1 0.0
26/10:30pm 15.4 8.8 12.7 84 1.5 E 39 46 21 25 1024.3 1024.2 0.0
26/10:00pm 15.3 9.0 12.4 83 1.6 E 37 44 20 24 1024.4 1024.3 0.0
26/09:30pm 15.3 9.4 12.4 83 1.6 E 35 44 19 24 1024.3 1024.2 0.0
26/09:00pm 15.4 9.4 12.2 81 1.7 E 35 44 19 24 1024.1 1024.0 0.0
26/08:30pm 15.7 9.0 12.3 80 1.9 E 39 50 21 27 1023.8 1023.7 0.0
26/08:00pm 16.0 9.2 12.0 77 2.2 E 39 50 21 27 1023.9 1023.8 0.0
26/07:30pm 16.5 10.1 12.1 75 2.4 ENE 37 46 20 25 1023.9 1023.8 0.0
26/07:00pm 16.5 9.5 11.4 72 2.8 E 39 50 21 27 1023.8 1023.7 0.0
26/06:30pm 17.4 9.6 11.2 67 3.4 E 43 52 23 28 1023.6 1023.5 0.0
26/06:00pm 17.9 10.1 11.2 65 3.6 E 43 56 23 30 1023.2 1023.1 0.0
26/05:30pm 18.3 10.4 11.4 64 3.8 ENE 44 56 24 30 1023.0 1022.9 0.0
26/05:00pm 18.8 11.1 11.6 63 4.0 ENE 43 56 23 30 1023.2 1023.1 0.0
26/04:30pm 18.7 10.8 11.3 62 4.1 ENE 44 57 24 31 1023.5 1023.4 0.0
26/04:00pm 19.1 11.2 11.4 61 4.2 ENE 44 57 24 31 1023.5 1023.4 0.0
26/03:30pm 19.3 11.1 11.8 62 4.2 ENE 46 59 25 32 1023.5 1023.4 0.0
26/03:00pm 19.7 11.9 11.7 60 4.4 ENE 44 63 24 34 1023.9 1023.8 0.0
26/02:59pm 19.5 11.6 11.3 59 4.5 ENE 44 63 24 34 1023.9 1023.8 0.0
26/02:30pm 20.1 12.2 11.3 57 4.9 ENE 44 56 24 30 1024.2 1024.1 0.0
26/02:00pm 19.8 12.1 11.6 59 4.5 ENE 43 54 23 29 1024.3 1024.2 0.0
26/01:30pm 19.4 11.8 11.9 62 4.2 E 43 54 23 29 1024.6 1024.5 0.0
26/01:00pm 19.0 11.2 11.3 61 4.2 ENE 43 56 23 30 1025.0 1024.9 0.0
26/12:30pm 19.8 13.2 12.6 63 4.1 ENE 39 52 21 28 1025.3 1025.2 0.0
26/12:00pm 18.7 11.0 11.5 63 3.9 ENE 43 52 23 28 1025.4 1025.3 0.0
26/11:30am 19.1 11.9 11.9 63 4.0 ENE 41 50 22 27 1025.6 1025.5 0.0
26/11:00am 18.5 11.8 12.3 67 3.4 ENE 39 48 21 26 1025.7 1025.6 0.0
26/10:30am 18.3 12.4 12.3 68 3.3 ENE 35 44 19 24 1025.8 1025.7 0.0
26/10:00am 18.1 12.2 12.5 70 3.1 ENE 35 43 19 23 1025.7 1025.6 0.0
26/09:30am 17.6 11.6 12.1 70 3.0 ENE 35 44 19 24 1025.4 1025.3 0.0
26/09:00am 16.8 10.7 11.9 73 2.7 ENE 35 43 19 23 1025.2 1025.1 0.0
26/08:30am 16.2 10.7 12.0 76 2.3 ENE 32 44 17 24 1025.2 1025.1 0.0
26/08:00am 15.4 10.6 11.8 79 1.9 ENE 28 35 15 19 1025.3 1025.2 0.0
26/07:30am 14.7 9.9 11.7 82 1.6 ENE 28 35 15 19 1025.1 1025.0 0.0
26/07:00am 14.4 9.6 11.6 83 1.5 ENE 28 33 15 18 1024.8 1024.7 0.0
26/06:30am 14.4 10.2 11.2 81 1.7 ENE 24 32 13 17 1024.6 1024.5 0.0
26/06:00am 14.0 9.3 10.6 80 1.8 ENE 26 32 14 17 1024.4 1024.3 0.0
26/05:30am 14.1 9.6 11.4 84 1.4 ENE 26 32 14 17 1024.3 1024.2 0.0
26/05:00am 13.7 9.3 11.8 88 1.0 NE 26 32 14 17 1024.0 1023.9 0.0
26/04:30am 11.8 8.2 10.7 93 0.6 ENE 20 24 11 13 1023.9 1023.8 0.0
26/04:00am 11.9 8.6 10.8 93 0.6 ESE 19 20 10 11 1024.4 1024.3 0.0
26/03:30am 12.0 8.6 10.7 92 0.7 ESE 19 20 10 11 1024.6 1024.5 0.0
26/03:00am 12.5 9.6 11.1 91 0.7 ESE 17 20 9 11 1024.9 1024.8 0.0
26/02:30am 12.4 9.0 10.6 89 0.9 ESE 19 20 10 11 1024.7 1024.6 0.0
26/02:00am 12.4 9.2 10.1 86 1.2 ESE 17 19 9 10 1025.2 1025.1 0.0
26/01:30am 12.6 9.3 9.6 82 1.5 ESE 17 19 9 10 1025.4 1025.3 0.0
26/01:00am 14.0 11.4 10.8 81 1.7 ESE 15 19 8 10 1025.9 1025.8 0.0
26/12:30am 14.1 10.6 10.3 78 2.0 SE 19 20 10 11 1026.3 1026.2 0.0
26/12:00am 13.9 10.1 9.7 76 2.2 ESE 20 24 11 13 1026.3 1026.2 0.0
 
Date/Time
EDT
Temp
°C
App
Temp
°C
Dew
Point
°C
Rel
Hum
%
Delta-T
°C
Wind Press
QNH
hPa
Press
MSL
hPa
Rain since
9am
mm
Dir  Spd
km/h
Gust
km/h
Spd
kts
Gust
kts
25/11:30pm 13.9 10.3 9.9 77 2.1 SE 19 20 10 11 1026.2 1026.1 0.0
25/11:00pm 14.3 11.3 10.5 78 2.0 ESE 17 19 9 10 1026.2 1026.1 0.0
25/10:30pm 14.3 11.4 9.5 73 2.5 SE 15 17 8 9 1026.0 1025.9 0.0
25/10:00pm 14.5 11.9 9.3 71 2.7 SE 13 17 7 9 1026.2 1026.1 0.0
25/09:30pm 14.4 12.2 9.4 72 2.6 SSE 11 13 6 7 1026.1 1026.0 0.0
25/09:00pm 14.6 12.9 10.0 74 2.4 SSE 9 11 5 6 1025.7 1025.6 0.0
25/08:30pm 14.8 13.3 10.4 75 2.3 SSE 9 13 5 7 1025.5 1025.4 0.0
25/08:00pm 15.0 13.0 10.2 73 2.5 SSE 11 15 6 8 1025.7 1025.6 0.0
25/07:30pm 16.0 15.2 11.8 76 2.3 NE 7 11 4 6 1025.4 1025.3 0.0
25/07:00pm 16.0 14.9 11.8 76 2.3 NE 9 13 5 7 1025.5 1025.4 0.0

Other Formats:

Comma delimited format used in spreadsheet applications
http://www.bom.gov.au/fwo/IDT60801/IDT60801.95954.axf

JavaScript Object Notation format (JSON) in row-major order
http://www.bom.gov.au/fwo/IDT60801/IDT60801.95954.json